Time;durP1;ratioP1;P1;durP2;ratioP2;P2;SDS_P1;SDS_P2;PMS_P1;PMS_P2;Temp;Humidity;BMP_temperature;BMP_pressure;BME280_temperature;BME280_humidity;BME280_pressure;Samples;Min_cycle;Max_cycle;Signal;HPM_P1;HPM_P2
2023/05/21 00:00:50;;;;;;;;;;;;;;;-142.75;100.00;77280.97;5088281;28;19916;-65
2023/05/21 00:03:15;;;;;;;;;;;;;;;-142.75;100.00;77280.97;5092473;28;20007;-64
2023/05/21 00:05:41;;;;;;;;;;;;;;;-142.75;100.00;77282.94;5087947;28;19916;-63
2023/05/21 00:08:06;;;;;;;;;;;;;;;-142.75;100.00;77280.97;5087940;28;19939;-64
2023/05/21 00:10:32;;;;;;;;;;;;;;;-142.75;100.00;77269.16;5086535;28;20354;-65
2023/05/21 00:12:57;;;;;;;;;;;;;;;-142.75;100.00;77251.44;5086726;28;19920;-65
2023/05/21 00:15:22;;;;;;;;;;;;;;;-142.75;100.00;77241.59;5088156;28;19978;-65
2023/05/21 00:17:47;;;;;;;;;;;;;;;-142.75;100.00;77233.72;5084942;28;19974;-64
2023/05/21 00:20:13;;;;;;;;;;;;;;;-142.75;100.00;77219.94;5093954;28;20006;-65
2023/05/21 00:22:39;;;;;;;;;;;;;;;-142.75;100.00;77208.13;5085159;28;19916;-65
2023/05/21 00:25:04;;;;;;;;;;;;;;;-142.75;100.00;77196.31;5086372;28;19916;-65
2023/05/21 00:27:29;;;;;;;;;;;;;;;-142.75;100.00;77198.28;5090354;28;19939;-64
2023/05/21 00:29:55;;;;;;;;;;;;;;;-142.75;100.00;77204.19;5085681;28;19923;-65
2023/05/21 00:32:20;;;;;;;;;;;;;;;-142.75;100.00;77202.22;5086247;28;19916;-65
2023/05/21 00:34:46;;;;;;;;;;;;;;;-142.75;100.00;77196.31;5088612;28;20303;-65
2023/05/21 00:37:14;;;;;;;;;;;;;;;-142.75;100.00;77190.41;5093439;28;20003;-65
2023/05/21 00:39:39;;;;;;;;;;;;;;;-142.75;100.00;77188.44;5085113;28;19923;-65
2023/05/21 00:42:04;;;;;;;;;;;;;;;-142.75;100.00;77182.53;5085045;28;20307;-64
2023/05/21 00:44:32;;;;;;;;;;;;;;;-142.75;100.00;77176.63;5084432;28;19923;-63
2023/05/21 00:47:00;;;;;;;;;;;;;;;-142.75;100.00;77172.69;5091911;28;20280;-62
2023/05/21 00:49:26;;;;;;;;;;;;;;;-142.75;100.00;77166.78;5085939;28;20367;-64
2023/05/21 00:51:51;;;;;;;;;;;;;;;-142.75;100.00;77170.72;5089902;28;19952;-65
2023/05/21 00:54:17;;;;;;;;;;;;;;;-142.75;100.00;77164.81;5084459;28;19954;-64
2023/05/21 00:56:42;;;;;;;;;;;;;;;-142.75;100.00;77164.81;5093218;28;19916;-66
2023/05/21 00:59:08;;;;;;;;;;;;;;;-142.75;100.00;77149.06;5092902;28;19916;-64
2023/05/21 01:01:35;;;;;;;;;;;;;;;-142.75;100.00;77145.13;5087730;28;20366;-65
2023/05/21 01:04:01;;;;;;;;;;;;;;;-142.75;100.00;77137.25;5089326;28;19947;-64
2023/05/21 01:06:27;;;;;;;;;;;;;;;-142.75;100.00;77129.38;5084659;28;19959;-65
2023/05/21 01:08:52;;;;;;;;;;;;;;;-142.75;100.00;77133.31;5089164;28;19927;-65
2023/05/21 01:11:17;;;;;;;;;;;;;;;-142.75;100.00;77127.41;5085548;28;19916;-66
2023/05/21 01:13:45;;;;;;;;;;;;;;;-142.75;100.00;77113.63;5091818;28;19924;-64
2023/05/21 01:16:12;;;;;;;;;;;;;;;-142.75;100.00;77105.75;5086152;28;19923;-65
2023/05/21 01:18:37;;;;;;;;;;;;;;;-142.75;100.00;77095.91;5094472;28;19916;-64
2023/05/21 01:21:03;;;;;;;;;;;;;;;-142.75;100.00;77097.88;5089090;28;20390;-64
2023/05/21 01:23:28;;;;;;;;;;;;;;;-142.75;100.00;77097.88;5096402;28;19916;-63
2023/05/21 01:25:53;;;;;;;;;;;;;;;-142.75;100.00;77091.97;5088815;28;19916;-65
2023/05/21 01:28:19;;;;;;;;;;;;;;;-142.75;100.00;77086.06;5094368;28;19927;-65
2023/05/21 01:30:44;;;;;;;;;;;;;;;-142.75;100.00;77078.19;5090429;28;19927;-64
2023/05/21 01:33:16;;;;;;;;;;;;;;;-142.75;100.00;77078.19;5089740;28;19912;-65
2023/05/21 01:35:46;;;;;;;;;;;;;;;-142.75;100.00;77078.19;5093499;28;20298;-65
2023/05/21 01:38:27;;;;;;;;;;;;;;;-142.75;100.00;77074.25;5093009;28;19931;-65
2023/05/21 01:41:05;;;;;;;;;;;;;;;-142.75;100.00;77070.31;5088563;28;19968;-65
2023/05/21 01:43:32;;;;;;;;;;;;;;;-142.75;100.00;77058.50;5089513;28;20315;-65
2023/05/21 01:45:58;;;;;;;;;;;;;;;-142.75;100.00;77070.31;5090317;28;19968;-64
2023/05/21 01:48:26;;;;;;;;;;;;;;;-142.75;100.00;77062.44;5095345;28;20018;-65
2023/05/21 01:50:54;;;;;;;;;;;;;;;-142.75;100.00;77058.50;5091776;28;20438;-65
2023/05/21 01:53:19;;;;;;;;;;;;;;;-142.75;100.00;77050.63;5089578;28;20256;-65
2023/05/21 01:55:44;;;;;;;;;;;;;;;-142.75;100.00;77066.38;5090151;28;19927;-65
2023/05/21 01:58:10;;;;;;;;;;;;;;;-142.75;100.00;77056.53;5089363;28;19919;-65
2023/05/21 02:00:36;;;;;;;;;;;;;;;-142.75;100.00;77052.59;5096837;28;19950;-65
2023/05/21 02:03:01;;;;;;;;;;;;;;;-142.75;100.00;77050.63;5090087;28;19947;-65
2023/05/21 02:05:26;;;;;;;;;;;;;;;-142.75;100.00;77048.66;5093155;28;20516;-65
2023/05/21 02:07:52;;;;;;;;;;;;;;;-142.75;100.00;77042.75;5089731;28;19931;-65
2023/05/21 02:10:17;;;;;;;;;;;;;;;-142.75;100.00;77046.69;5090295;28;19923;-65
2023/05/21 02:12:43;;;;;;;;;;;;;;;-142.75;100.00;77036.84;5090143;28;19923;-64
2023/05/21 02:15:08;;;;;;;;;;;;;;;-142.75;100.00;77038.81;5092243;28;20374;-66
2023/05/21 02:17:34;;;;;;;;;;;;;;;-142.75;100.00;77038.81;5093314;28;20015;-66
2023/05/21 02:20:12;;;;;;;;;;;;;;;-142.75;100.00;77032.91;5087757;28;20525;-65
2023/05/21 02:22:41;;;;;;;;;;;;;;;-142.75;100.00;77028.97;5090390;28;19955;-66
2023/05/21 02:25:08;;;;;;;;;;;;;;;-142.75;100.00;77027.00;5090718;28;19924;-66
2023/05/21 02:27:34;;;;;;;;;;;;;;;-142.75;100.00;77027.00;5094672;28;20014;-65
2023/05/21 02:29:59;;;;;;;;;;;;;;;-142.75;100.00;77028.97;5089543;28;19923;-64
2023/05/21 02:32:24;;;;;;;;;;;;;;;-142.75;100.00;77030.94;5088746;28;19924;-66
2023/05/21 02:34:50;;;;;;;;;;;;;;;-142.75;100.00;77030.94;5086662;28;19939;-64
2023/05/21 02:37:16;;;;;;;;;;;;;;;-142.75;100.00;77038.81;5088842;28;20019;-65
2023/05/21 02:39:41;;;;;;;;;;;;;;;-142.75;100.00;77034.88;5096718;28;20368;-66
2023/05/21 02:42:06;;;;;;;;;;;;;;;-142.75;100.00;77025.03;5097320;28;20015;-64
2023/05/21 02:44:31;;;;;;;;;;;;;;;-142.75;100.00;77023.06;5088132;28;19998;-66
2023/05/21 02:46:57;;;;;;;;;;;;;;;-142.75;100.00;77030.94;5088239;28;19927;-65
2023/05/21 02:49:22;;;;;;;;;;;;;;;-142.75;100.00;77034.88;5087451;28;19951;-66
2023/05/21 02:51:47;;;;;;;;;;;;;;;-142.75;100.00;77038.81;5093210;28;19923;-65
2023/05/21 02:54:13;;;;;;;;;;;;;;;-142.75;100.00;77038.81;5086777;28;20391;-65
2023/05/21 02:56:38;;;;;;;;;;;;;;;-142.75;100.00;77027.00;5090624;28;19915;-66
2023/05/21 02:59:03;;;;;;;;;;;;;;;-142.75;100.00;77030.94;5088365;28;19920;-66
2023/05/21 03:01:29;;;;;;;;;;;;;;;-142.75;100.00;77030.94;5094363;28;19916;-65
2023/05/21 03:03:54;;;;;;;;;;;;;;;-142.75;100.00;77023.06;5091349;28;19920;-65
2023/05/21 03:06:19;;;;;;;;;;;;;;;-142.75;100.00;77030.94;5087698;28;20076;-65
2023/05/21 03:08:44;;;;;;;;;;;;;;;-142.75;100.00;77034.88;5088311;28;19925;-65
2023/05/21 03:11:10;;;;;;;;;;;;;;;-142.75;100.00;77025.03;5086263;28;20421;-65
2023/05/21 03:13:35;;;;;;;;;;;;;;;-142.75;100.00;77025.03;5089744;28;19919;-65
2023/05/21 03:16:00;;;;;;;;;;;;;;;-142.75;100.00;77027.00;5087877;28;19916;-65
2023/05/21 03:18:25;;;;;;;;;;;;;;;-142.75;100.00;77019.13;5090151;28;19965;-65
2023/05/21 03:20:51;;;;;;;;;;;;;;;-142.75;100.00;77013.22;5090197;28;19919;-66
2023/05/21 03:23:16;;;;;;;;;;;;;;;-142.75;100.00;77019.13;5086033;28;19985;-66
2023/05/21 03:25:42;;;;;;;;;;;;;;;-142.75;100.00;77019.13;5091437;28;19916;-65
2023/05/21 03:28:08;;;;;;;;;;;;;;;-142.75;100.00;77021.09;5087622;28;20349;-65
2023/05/21 03:30:34;;;;;;;;;;;;;;;-142.75;100.00;77013.22;5090551;28;19922;-65
2023/05/21 03:32:59;;;;;;;;;;;;;;;-142.75;100.00;77019.13;5087554;28;19916;-64
2023/05/21 03:35:24;;;;;;;;;;;;;;;-142.75;100.00;77027.00;5095577;28;20035;-65
2023/05/21 03:37:50;;;;;;;;;;;;;;;-142.75;100.00;77027.00;5094178;28;19924;-66
2023/05/21 03:40:15;;;;;;;;;;;;;;;-142.75;100.00;77023.06;5086262;28;19916;-66
2023/05/21 03:42:40;;;;;;;;;;;;;;;-142.75;100.00;77027.00;5091442;28;20371;-65
2023/05/21 03:45:06;;;;;;;;;;;;;;;-142.75;100.00;77023.06;5093503;28;20011;-65
2023/05/21 03:47:31;;;;;;;;;;;;;;;-142.75;100.00;77027.00;5094764;28;20031;-66
2023/05/21 03:49:56;;;;;;;;;;;;;;;-142.75;100.00;77027.00;5086508;28;20511;-65
2023/05/21 03:52:21;;;;;;;;;;;;;;;-142.75;100.00;77030.94;5088300;28;19916;-65
2023/05/21 03:54:47;;;;;;;;;;;;;;;-142.75;100.00;77034.88;5086853;28;19916;-64
2023/05/21 03:57:12;;;;;;;;;;;;;;;-142.75;100.00;77034.88;5086756;28;20233;-65
2023/05/21 03:59:37;;;;;;;;;;;;;;;-142.75;100.00;77027.00;5091305;28;19922;-66
2023/05/21 04:02:02;;;;;;;;;;;;;;;-142.75;100.00;77030.94;5096246;28;20012;-66
2023/05/21 04:04:28;;;;;;;;;;;;;;;-142.75;100.00;77030.94;5086936;28;19916;-64
2023/05/21 04:06:54;;;;;;;;;;;;;;;-142.75;100.00;77030.94;5091950;28;19916;-66
2023/05/21 04:09:19;;;;;;;;;;;;;;;-142.75;100.00;77013.22;5087197;28;19916;-65
2023/05/21 04:11:45;;;;;;;;;;;;;;;-142.75;100.00;77019.13;5088162;28;20291;-66
2023/05/21 04:14:10;;;;;;;;;;;;;;;-142.75;100.00;77025.03;5091583;28;20321;-64
2023/05/21 04:16:37;;;;;;;;;;;;;;;-142.75;100.00;77015.19;5093440;28;19923;-65
2023/05/21 04:19:02;;;;;;;;;;;;;;;-142.75;100.00;77009.28;5086665;28;19916;-65
2023/05/21 04:21:27;;;;;;;;;;;;;;;-142.75;100.00;77015.19;5086370;28;19970;-65
2023/05/21 04:23:52;;;;;;;;;;;;;;;-142.75;100.00;77025.03;5086527;28;22028;-66
2023/05/21 04:26:18;;;;;;;;;;;;;;;-142.75;100.00;77021.09;5086182;28;19950;-65
2023/05/21 04:28:44;;;;;;;;;;;;;;;-142.75;100.00;77027.00;5095185;28;19919;-65
2023/05/21 04:31:11;;;;;;;;;;;;;;;-142.75;100.00;77021.09;5089098;28;20348;-65
2023/05/21 04:33:37;;;;;;;;;;;;;;;-142.75;100.00;77023.06;5090979;28;20305;-64
2023/05/21 04:36:02;;;;;;;;;;;;;;;-142.75;100.00;77021.09;5086123;28;19916;-65
2023/05/21 04:38:28;;;;;;;;;;;;;;;-142.75;100.00;77021.09;5083941;28;19927;-67
2023/05/21 04:40:54;;;;;;;;;;;;;;;-142.75;100.00;77025.03;5086994;28;19924;-66
2023/05/21 04:43:26;;;;;;;;;;;;;;;-142.75;100.00;77019.13;5084004;28;19942;-66
2023/05/21 04:45:53;;;;;;;;;;;;;;;-142.75;100.00;77019.13;5086192;28;20018;-65
2023/05/21 04:48:19;;;;;;;;;;;;;;;-142.75;100.00;77023.06;5090059;28;19920;-66
2023/05/21 04:50:44;;;;;;;;;;;;;;;-142.75;100.00;77019.13;5084789;28;20480;-66
2023/05/21 04:53:10;;;;;;;;;;;;;;;-142.75;100.00;77013.22;5083349;28;19916;-65
2023/05/21 04:55:38;;;;;;;;;;;;;;;-142.75;100.00;77017.16;5087508;28;19916;-65
2023/05/21 04:58:07;;;;;;;;;;;;;;;-142.75;100.00;77015.19;5084924;28;19935;-66
2023/05/21 05:00:32;;;;;;;;;;;;;;;-142.75;100.00;77005.34;5085557;28;19916;-65
2023/05/21 05:03:00;;;;;;;;;;;;;;;-142.75;100.00;77003.38;5085662;28;20021;-65
2023/05/21 05:05:25;;;;;;;;;;;;;;;-142.75;100.00;76997.47;5089704;28;19920;-66
2023/05/21 05:07:50;;;;;;;;;;;;;;;-142.75;100.00;77001.41;5092503;28;19920;-66
2023/05/21 05:10:16;;;;;;;;;;;;;;;-142.75;100.00;77011.25;5085964;28;20035;-66
2023/05/21 05:12:41;;;;;;;;;;;;;;;-142.75;100.00;76995.50;5087468;28;19916;-64
2023/05/21 05:15:06;;;;;;;;;;;;;;;-142.75;100.00;76995.50;5085639;28;19939;-66
2023/05/21 05:17:33;;;;;;;;;;;;;;;-142.75;100.00;76983.69;5091520;28;20015;-66
2023/05/21 05:19:58;;;;;;;;;;;;;;;-142.75;100.00;76975.81;5090032;28;19931;-65
2023/05/21 05:22:24;;;;;;;;;;;;;;;-142.75;100.00;76965.97;5085667;28;19949;-64
2023/05/21 05:24:49;;;;;;;;;;;;;;;-142.75;100.00;76956.13;5084319;28;19923;-64
2023/05/21 05:27:14;;;;;;;;;;;;;;;-142.75;100.00;76950.22;5085444;28;19931;-66
2023/05/21 05:29:39;;;;;;;;;;;;;;;-142.75;100.00;76938.41;5088295;28;19951;-66
2023/05/21 05:32:05;;;;;;;;;;;;;;;-142.75;100.00;76940.38;5087207;28;19950;-66
2023/05/21 05:34:31;;;;;;;;;;;;;;;-142.75;100.00;76920.69;5095089;28;19916;-65
2023/05/21 05:36:56;;;;;;;;;;;;;;;-142.75;100.00;76914.78;5088682;28;20409;-66
2023/05/21 05:39:22;;;;;;;;;;;;;;;-142.75;100.00;76916.75;5085979;28;19916;-66
2023/05/21 05:41:47;;;;;;;;;;;;;;;-142.75;100.00;76908.88;5091188;28;19917;-66
2023/05/21 05:44:12;;;;;;;;;;;;;;;-142.75;100.00;76899.03;5085267;28;19916;-66
2023/05/21 05:46:37;;;;;;;;;;;;;;;-142.75;100.00;76901.00;5086026;28;20026;-67
2023/05/21 05:49:02;;;;;;;;;;;;;;;-142.75;100.00;76895.09;5085448;28;19927;-66
2023/05/21 05:51:28;;;;;;;;;;;;;;;-142.75;100.00;76901.00;5088820;28;19915;-65
2023/05/21 05:53:54;;;;;;;;;;;;;;;-142.75;100.00;76889.19;5087524;28;19917;-67
2023/05/21 05:56:20;;;;;;;;;;;;;;;-142.75;100.00;76877.38;5083914;28;20294;-67
2023/05/21 05:58:45;;;;;;;;;;;;;;;-142.75;100.00;76875.41;5085130;28;19928;-66
2023/05/21 06:01:10;;;;;;;;;;;;;;;-142.75;100.00;76869.50;5085018;28;19920;-65
2023/05/21 06:03:35;;;;;;;;;;;;;;;-142.75;100.00;76877.38;5085025;28;19916;-66
2023/05/21 06:06:00;;;;;;;;;;;;;;;-142.75;100.00;76879.34;5085209;28;20371;-68
2023/05/21 06:08:26;;;;;;;;;;;;;;;-142.75;100.00;76869.50;5085924;28;19956;-65
2023/05/21 06:10:51;;;;;;;;;;;;;;;-142.75;100.00;76859.66;5083912;28;19923;-68
2023/05/21 06:13:16;;;;;;;;;;;;;;;-142.75;100.00;76845.88;5086891;28;20077;-67
2023/05/21 06:15:42;;;;;;;;;;;;;;;-142.75;100.00;76849.81;5088902;28;19923;-66
2023/05/21 06:18:07;;;;;;;;;;;;;;;-142.75;100.00;76826.19;5088709;28;19916;-66
2023/05/21 06:20:32;;;;;;;;;;;;;;;-142.75;100.00;76826.19;5089015;28;19920;-67
2023/05/21 06:22:57;;;;;;;;;;;;;;;-142.75;100.00;76834.06;5088759;28;19916;-69
2023/05/21 06:25:24;;;;;;;;;;;;;;;-142.75;100.00;76822.25;5087675;28;19923;-65
2023/05/21 06:27:49;;;;;;;;;;;;;;;-142.75;100.00;76802.56;5088282;28;19920;-67
2023/05/21 06:30:14;;;;;;;;;;;;;;;-142.75;100.00;76794.69;5088477;28;20572;-66
2023/05/21 06:32:40;;;;;;;;;;;;;;;-142.75;100.00;76775.03;5088342;28;20433;-65
2023/05/21 06:35:05;;;;;;;;;;;;;;;-142.75;100.00;76767.16;5088273;28;19920;-66
2023/05/21 06:37:30;;;;;;;;;;;;;;;-142.75;100.00;76767.16;5087689;28;19916;-66
2023/05/21 06:39:55;;;;;;;;;;;;;;;-142.75;100.00;76763.22;5086577;28;20007;-65
2023/05/21 06:42:21;;;;;;;;;;;;;;;-142.75;100.00;76739.59;5085920;28;19916;-65
2023/05/21 06:44:46;;;;;;;;;;;;;;;-142.75;100.00;76731.72;5093765;28;19924;-68
2023/05/21 06:47:11;;;;;;;;;;;;;;;-142.75;100.00;76739.59;5085064;28;20293;-65
2023/05/21 06:49:36;;;;;;;;;;;;;;;-142.75;100.00;76731.72;5085728;28;19916;-65
2023/05/21 06:52:02;;;;;;;;;;;;;;;-142.75;100.00;76721.88;5084150;28;19916;-65
2023/05/21 06:54:27;;;;;;;;;;;;;;;-142.75;100.00;76735.66;5086932;28;20029;-65
2023/05/21 06:56:52;;;;;;;;;;;;;;;-142.75;100.00;76749.44;5085346;28;19932;-65
2023/05/21 06:59:17;;;;;;;;;;;;;;;-142.75;100.00;76743.53;5083435;28;19923;-66
2023/05/21 07:01:43;;;;;;;;;;;;;;;-142.75;100.00;76739.59;5085679;28;20434;-65
2023/05/21 07:04:08;;;;;;;;;;;;;;;-142.75;100.00;76727.78;5086300;28;20015;-66
2023/05/21 07:06:34;;;;;;;;;;;;;;;-142.75;100.00;76731.72;5086765;28;19916;-66
2023/05/21 07:09:00;;;;;;;;;;;;;;;-142.75;100.00;76735.66;5083606;28;19920;-65
2023/05/21 07:11:27;;;;;;;;;;;;;;;-142.75;100.00;76719.91;5085056;28;20420;-65
2023/05/21 07:13:53;;;;;;;;;;;;;;;-142.75;100.00;76729.75;5087049;28;19943;-66
2023/05/21 07:16:18;;;;;;;;;;;;;;;-142.75;100.00;76719.91;5085127;28;19974;-65
2023/05/21 07:18:43;;;;;;;;;;;;;;;-142.75;100.00;76729.75;5087761;28;19916;-66
2023/05/21 07:21:09;;;;;;;;;;;;;;;-142.75;100.00;76714.00;5085154;28;19923;-66
2023/05/21 07:23:34;;;;;;;;;;;;;;;-142.75;100.00;76708.09;5081867;28;19931;-68
2023/05/21 07:25:59;;;;;;;;;;;;;;;-142.75;100.00;76700.22;5083231;28;20397;-66
2023/05/21 07:28:24;;;;;;;;;;;;;;;-142.75;100.00;76694.31;5087165;28;19930;-66
2023/05/21 07:30:50;;;;;;;;;;;;;;;-142.75;100.00;76686.44;5087866;28;19963;-68
2023/05/21 07:33:15;;;;;;;;;;;;;;;-142.75;100.00;76696.28;5087974;28;19942;-66
2023/05/21 07:35:40;;;;;;;;;;;;;;;-142.75;100.00;76690.38;5094026;28;20594;-66
2023/05/21 07:38:06;;;;;;;;;;;;;;;-142.75;100.00;76696.28;5086607;28;19916;-68
2023/05/21 07:40:31;;;;;;;;;;;;;;;-142.75;100.00;76692.34;5082470;28;19915;-67
2023/05/21 07:42:56;;;;;;;;;;;;;;;-142.75;100.00;76670.69;5086719;28;20386;-66
2023/05/21 07:45:21;;;;;;;;;;;;;;;-142.75;100.00;76654.94;5086585;28;20382;-66
2023/05/21 07:47:46;;;;;;;;;;;;;;;-142.75;100.00;76647.06;5085132;28;20559;-65
2023/05/21 07:50:12;;;;;;;;;;;;;;;-142.75;100.00;76649.03;5088362;28;19920;-67
2023/05/21 07:52:37;;;;;;;;;;;;;;;-142.75;100.00;76625.41;5088264;28;19916;-67
2023/05/21 07:55:03;;;;;;;;;;;;;;;-142.75;100.00;76629.34;5087639;28;20367;-67
2023/05/21 07:57:28;;;;;;;;;;;;;;;-142.75;100.00;76621.47;5087305;28;19916;-64
2023/05/21 07:59:53;;;;;;;;;;;;;;;-142.75;100.00;76615.56;5088020;28;19916;-64
2023/05/21 08:02:19;;;;;;;;;;;;;;;-142.75;100.00;76631.31;5090459;28;19959;-66
2023/05/21 08:04:44;;;;;;;;;;;;;;;-142.75;100.00;76623.44;5087354;28;19924;-65
2023/05/21 08:07:09;;;;;;;;;;;;;;;-142.75;100.00;76627.38;5087821;28;19920;-66
2023/05/21 08:09:34;;;;;;;;;;;;;;;-142.75;100.00;76615.56;5094796;28;19974;-67
2023/05/21 08:12:00;;;;;;;;;;;;;;;-142.75;100.00;76625.41;5087155;28;19916;-65
2023/05/21 08:14:25;;;;;;;;;;;;;;;-142.75;100.00;76605.72;5091655;28;19962;-65
2023/05/21 08:16:50;;;;;;;;;;;;;;;-142.75;100.00;76605.72;5087288;28;20201;-67
2023/05/21 08:19:15;;;;;;;;;;;;;;;-142.75;100.00;76601.78;5086865;28;19916;-66
2023/05/21 08:21:41;;;;;;;;;;;;;;;-142.75;100.00;76582.09;5087719;28;19916;-67
2023/05/21 08:24:06;;;;;;;;;;;;;;;-142.75;100.00;76584.06;5087139;28;20509;-65
2023/05/21 08:26:31;;;;;;;;;;;;;;;-142.75;100.00;76570.28;5087000;28;19925;-68
2023/05/21 08:28:56;;;;;;;;;;;;;;;-142.75;100.00;76570.28;5087740;28;20474;-66
2023/05/21 08:31:22;;;;;;;;;;;;;;;-142.75;100.00;76566.34;5086048;28;19916;-67
2023/05/21 08:33:51;;;;;;;;;;;;;;;-142.75;100.00;76554.53;5087555;28;19977;-65
2023/05/21 08:36:16;;;;;;;;;;;;;;;-142.75;100.00;76530.91;5086769;28;19916;-68
2023/05/21 08:38:42;;;;;;;;;;;;;;;-142.75;100.00;76501.41;5086715;28;19916;-67
2023/05/21 08:41:08;;;;;;;;;;;;;;;-142.75;100.00;76505.34;5088362;28;19920;-67
2023/05/21 08:43:35;;;;;;;;;;;;;;;-142.75;100.00;76475.81;5086200;28;20011;-67
2023/05/21 08:46:02;;;;;;;;;;;;;;;-142.75;100.00;76477.78;5084955;28;19977;-66
2023/05/21 08:48:29;;;;;;;;;;;;;;;-142.75;100.00;76479.75;5084929;28;19989;-66
2023/05/21 08:50:54;;;;;;;;;;;;;;;-142.75;100.00;76483.69;5085129;28;20003;-68
2023/05/21 08:53:20;;;;;;;;;;;;;;;-142.75;100.00;76505.34;5085377;28;20047;-67
2023/05/21 08:55:45;;;;;;;;;;;;;;;-142.75;100.00;76495.50;5084824;28;19946;-67
2023/05/21 08:58:12;;;;;;;;;;;;;;;-142.75;100.00;76495.50;5084999;28;20579;-67
2023/05/21 09:00:37;;;;;;;;;;;;;;;-142.75;100.00;76471.88;5086470;28;19924;-68
2023/05/21 09:03:12;;;;;;;;;;;;;;;-142.75;100.00;76452.19;5086443;28;20332;-66
2023/05/21 09:05:39;;;;;;;;;;;;;;;-142.75;100.00;76456.13;5090051;28;19923;-66
2023/05/21 09:08:08;;;;;;;;;;;;;;;-142.75;100.00;76444.31;5088095;28;19924;-65
2023/05/21 09:10:35;;;;;;;;;;;;;;;-142.75;100.00;76450.22;5085150;28;19956;-66
2023/05/21 09:13:01;;;;;;;;;;;;;;;-142.75;100.00;76430.53;5087878;28;19923;-67
2023/05/21 09:15:26;;;;;;;;;;;;;;;-142.75;100.00;76401.00;5086117;28;20395;-67
2023/05/21 09:17:52;;;;;;;;;;;;;;;-142.75;100.00;76395.09;5091092;28;19916;-67
2023/05/21 09:20:22;;;;;;;;;;;;;;;-142.75;100.00;76369.50;5090762;28;19916;-67
2023/05/21 09:22:49;;;;;;;;;;;;;;;-142.75;100.00;76363.59;5089931;28;19916;-67
2023/05/21 09:25:15;;;;;;;;;;;;;;;-142.75;100.00;76369.50;5087043;28;19923;-67
2023/05/21 09:27:41;;;;;;;;;;;;;;;-142.75;100.00;76347.84;5085880;28;20559;-67
2023/05/21 09:30:10;;;;;;;;;;;;;;;-142.75;100.00;76330.16;5089398;28;19955;-67
2023/05/21 09:32:36;;;;;;;;;;;;;;;-142.75;100.00;76340.00;5086089;28;19949;-67
2023/05/21 09:35:10;;;;;;;;;;;;;;;-142.75;100.00;76302.59;5086243;28;20340;-67
2023/05/21 09:37:56;;;;;;;;;;;;;;;-142.75;100.00;76271.09;5086706;28;19916;-67
2023/05/21 09:40:22;;;;;;;;;;;;;;;-142.75;100.00;76231.72;5084804;28;19985;-67
2023/05/21 09:42:48;;;;;;;;;;;;;;;-142.75;100.00;76192.38;5089156;28;19923;-68
2023/05/21 09:45:20;;;;;;;;;;;;;;;-142.75;100.00;76168.75;5086951;28;20390;-68
2023/05/21 09:47:46;;;;;;;;;;;;;;;-142.75;97.98;76172.69;5086327;28;19927;-67
2023/05/21 09:50:12;;;;;;;;;;;;;;;-142.75;98.64;76145.13;5081357;28;19916;-67
2023/05/21 09:52:38;;;;;;;;;;;;;;;-142.75;97.34;76115.59;5088069;28;19967;-66
2023/05/21 09:55:04;;;;;;;;;;;;;;;-142.75;98.74;76091.97;5087885;28;19923;-66
2023/05/21 09:57:30;;;;;;;;;;;;;;;-142.75;92.96;76121.50;5085034;28;19916;-67
2023/05/21 09:59:55;;;;;;;;;;;;;;;-142.75;97.28;76101.81;5086144;28;20003;-67
2023/05/21 10:02:21;;;;;;;;;;;;;;;-142.75;94.59;76086.06;5088708;28;19916;-67
2023/05/21 10:04:50;;;;;;;;;;;;;;;-142.75;94.38;76064.44;5090843;28;19916;-67
2023/05/21 10:07:25;;;;;;;;;;;;;;;-142.75;92.63;76029.00;5086766;28;20406;-68
2023/05/21 10:09:53;;;;;;;;;;;;;;;-142.75;93.30;76009.31;5086438;28;19946;-66
2023/05/21 10:12:20;;;;;;;;;;;;;;;-142.75;93.54;76019.16;5086323;28;19930;-67
2023/05/21 10:14:50;;;;;;;;;;;;;;;-142.75;90.56;76017.19;5088803;28;19930;-68
2023/05/21 10:17:15;;;;;;;;;;;;;;;-142.75;90.52;75956.19;5090234;28;19924;-66
2023/05/21 10:19:41;;;;;;;;;;;;;;;-142.75;93.17;75920.75;5090342;28;20006;-67
2023/05/21 10:22:06;;;;;;;;;;;;;;;-142.75;90.82;75897.13;5090817;28;19916;-65
2023/05/21 10:24:32;;;;;;;;;;;;;;;-142.75;88.54;75912.88;5100558;28;19923;-67
2023/05/21 10:26:57;;;;;;;;;;;;;;;-142.75;89.15;75932.56;5094705;28;20299;-68
2023/05/21 10:29:24;;;;;;;;;;;;;;;-142.75;87.43;75946.34;5098328;28;19923;-67
2023/05/21 10:31:51;;;;;;;;;;;;;;;-142.75;86.59;75975.84;5090069;28;19916;-68
2023/05/21 10:34:17;;;;;;;;;;;;;;;-142.75;86.33;75979.78;5089739;28;20399;-67
2023/05/21 10:36:43;;;;;;;;;;;;;;;-142.75;88.84;75979.78;5088329;28;19916;-67
2023/05/21 10:39:11;;;;;;;;;;;;;;;-142.75;87.87;75940.44;5089913;28;20352;-69
2023/05/21 10:41:45;;;;;;;;;;;;;;;-142.75;87.70;75912.88;5089112;28;20053;-67
2023/05/21 10:44:13;;;;;;;;;;;;;;;-142.75;86.72;75885.31;5089532;28;19951;-65
2023/05/21 10:46:45;;;;;;;;;;;;;;;-142.75;87.49;75844.00;5089404;28;20549;-67
2023/05/21 10:49:16;;;;;;;;;;;;;;;-142.75;85.97;75826.28;5089468;28;20577;-66
2023/05/21 10:52:07;;;;;;;;;;;;;;;-142.75;84.11;75806.59;5089666;28;19919;-66
2023/05/21 10:54:36;;;;;;;;;;;;;;;-142.75;84.05;75847.94;5086118;28;20379;-64
2023/05/21 10:57:19;;;;;;;;;;;;;;;-142.75;83.12;75840.06;5096047;28;20565;-65
2023/05/21 10:59:45;;;;;;;;;;;;;;;-142.75;83.35;75830.22;5088269;28;20028;-66
2023/05/21 11:02:12;;;;;;;;;;;;;;;-142.75;84.01;75828.25;5089323;28;19959;-67
2023/05/21 11:04:41;;;;;;;;;;;;;;;-142.75;83.68;75830.22;5089243;28;19922;-66
2023/05/21 11:07:07;;;;;;;;;;;;;;;-142.75;83.11;75838.09;5089063;28;19962;-66
2023/05/21 11:09:32;;;;;;;;;;;;;;;-142.75;83.82;75840.06;5087702;28;19939;-64
2023/05/21 11:11:58;;;;;;;;;;;;;;;-142.75;85.08;75792.81;5089114;28;19916;-65
2023/05/21 11:14:30;;;;;;;;;;;;;;;-142.75;82.99;75755.44;5089198;28;19916;-66
2023/05/21 11:16:55;;;;;;;;;;;;;;;-142.75;80.82;75782.97;5089047;28;20132;-66
2023/05/21 11:19:21;;;;;;;;;;;;;;;-142.75;81.17;75788.88;5089115;28;19916;-66
2023/05/21 11:21:50;;;;;;;;;;;;;;;-142.75;82.79;75761.34;5089083;28;19927;-64
2023/05/21 11:24:19;;;;;;;;;;;;;;;-142.75;81.80;75802.66;5088980;28;19924;-66
2023/05/21 11:26:47;;;;;;;;;;;;;;;-142.75;82.96;75755.44;5089197;28;20287;-65
2023/05/21 11:29:13;;;;;;;;;;;;;;;-142.75;80.51;75755.44;5088846;28;19927;-66
2023/05/21 11:31:43;;;;;;;;;;;;;;;-142.75;81.70;75721.97;5088737;28;19926;-65
2023/05/21 11:34:17;;;;;;;;;;;;;;;-142.75;78.85;75751.50;5090588;28;19920;-66
2023/05/21 11:36:43;;;;;;;;;;;;;;;-142.75;80.09;75753.47;5086942;28;19916;-66
2023/05/21 11:39:14;;;;;;;;;;;;;;;-142.75;80.45;75749.53;5087371;28;20387;-66
2023/05/21 11:41:48;;;;;;;;;;;;;;;-142.75;81.47;75786.91;5087482;28;20307;-66
2023/05/21 11:44:13;;;;;;;;;;;;;;;-142.75;82.52;75769.19;5088454;28;20293;-65
2023/05/21 11:46:39;;;;;;;;;;;;;;;-142.75;82.24;75767.22;5095091;28;19959;-66
2023/05/21 11:49:05;;;;;;;;;;;;;;;-142.75;80.90;75761.34;5089089;28;19931;-66
2023/05/21 11:51:30;;;;;;;;;;;;;;;-142.75;81.78;75739.69;5088228;28;19916;-65
2023/05/21 11:53:56;;;;;;;;;;;;;;;-142.75;83.42;75747.56;5088727;28;19916;-66
2023/05/21 11:56:23;;;;;;;;;;;;;;;-142.75;82.84;75749.53;5088037;28;19920;-66
2023/05/21 11:58:48;;;;;;;;;;;;;;;-142.75;83.67;75763.28;5088483;28;19917;-66
2023/05/21 12:01:26;;;;;;;;;;;;;;;-142.75;83.66;75775.09;5085778;28;19916;-66
2023/05/21 12:03:51;;;;;;;;;;;;;;;-142.75;83.09;75798.72;5076791;28;19978;-66
2023/05/21 12:06:17;;;;;;;;;;;;;;;-142.75;83.38;75779.03;5084737;28;20368;-66
2023/05/21 12:08:42;;;;;;;;;;;;;;;-142.75;84.72;75792.81;5088860;28;19975;-66
2023/05/21 12:11:07;;;;;;;;;;;;;;;-142.75;84.08;75842.03;5086905;28;19923;-66
2023/05/21 12:13:33;;;;;;;;;;;;;;;-142.75;82.67;75853.84;5090253;28;19924;-66